createdAt,value
2023-01-12T00:02:06.658Z,99088.31
2023-01-12T00:04:35.733Z,99087.91
2023-01-12T00:07:03.970Z,99080.31
2023-01-12T00:09:31.881Z,99082.47
2023-01-12T00:12:00.051Z,99085.72
2023-01-12T00:14:27.990Z,99082.59
2023-01-12T00:16:55.870Z,99081.16
2023-01-12T00:19:25.354Z,99071.78
2023-01-12T00:21:59.572Z,99070.81
2023-01-12T00:24:29.273Z,99069.50
2023-01-12T00:26:58.666Z,99062.28
2023-01-12T00:29:27.564Z,99073.41
2023-01-12T00:32:00.890Z,99067.91
2023-01-12T00:34:30.595Z,99072.53
2023-01-12T00:37:00.832Z,99071.69
2023-01-12T00:39:28.754Z,99073.00
2023-01-12T00:42:16.768Z,99068.75
2023-01-12T00:45:02.154Z,99063.19
2023-01-12T00:47:30.061Z,99048.72
2023-01-12T00:49:59.264Z,99050.03
2023-01-12T00:52:31.427Z,99044.94
2023-01-12T00:55:00.403Z,99041.72
2023-01-12T00:57:28.792Z,99044.34
2023-01-12T00:59:59.363Z,99038.84
2023-01-12T01:02:27.683Z,99043.09
2023-01-12T01:04:55.829Z,99047.25
2023-01-12T01:07:25.157Z,99037.19
2023-01-12T01:09:52.950Z,99047.28
2023-01-12T01:12:20.915Z,99050.75
2023-01-12T01:14:49.155Z,99035.72
2023-01-12T01:17:17.029Z,99046.69
2023-01-12T01:19:44.937Z,99044.97
2023-01-12T01:22:13.490Z,99044.81
2023-01-12T01:24:43.272Z,99046.69
2023-01-12T01:27:11.253Z,99056.88
2023-01-12T01:29:38.995Z,99062.06
2023-01-12T01:32:07.538Z,99056.69
2023-01-12T01:34:35.742Z,99050.59
2023-01-12T01:37:04.107Z,99048.59
2023-01-12T01:39:31.874Z,99051.03
2023-01-12T01:42:01.504Z,99054.84
2023-01-12T01:44:51.692Z,99055.78
2023-01-12T01:47:31.243Z,99051.81
2023-01-12T01:50:03.033Z,99059.25
2023-01-12T01:52:34.622Z,99057.31
2023-01-12T01:55:08.086Z,99057.72
2023-01-12T01:57:43.845Z,99068.41
2023-01-12T02:00:13.876Z,99061.91
2023-01-12T02:02:44.388Z,99063.50
2023-01-12T02:05:13.585Z,99052.44
2023-01-12T02:07:42.101Z,99053.47
2023-01-12T02:10:11.049Z,99059.06
2023-01-12T02:12:58.018Z,99061.78
2023-01-12T02:15:46.882Z,99046.16
2023-01-12T02:18:22.695Z,99040.13
2023-01-12T02:21:07.418Z,99024.69
2023-01-12T02:24:16.469Z,99026.19
2023-01-12T02:27:12.946Z,99024.56
2023-01-12T02:30:16.205Z,99019.13
2023-01-12T02:32:55.398Z,99013.69
2023-01-12T02:35:28.261Z,99002.94
2023-01-12T02:38:04.760Z,99008.13
2023-01-12T02:40:37.787Z,99003.59
2023-01-12T02:43:13.500Z,98998.16
2023-01-12T02:45:48.136Z,98999.28
2023-01-12T02:48:23.238Z,98990.09
2023-01-12T02:50:58.575Z,98986.38
2023-01-12T02:53:36.057Z,98984.59
2023-01-12T02:56:08.663Z,98984.31
2023-01-12T02:58:39.691Z,98975.78
2023-01-12T03:01:10.584Z,98970.50
2023-01-12T03:03:40.838Z,98983.50
2023-01-12T03:06:09.963Z,98966.19
2023-01-12T03:08:40.277Z,98963.25
2023-01-12T03:11:13.975Z,98957.16
2023-01-12T03:13:46.481Z,98975.41
2023-01-12T03:16:17.668Z,98985.66
2023-01-12T03:18:51.787Z,98987.38
2023-01-12T03:21:27.632Z,98976.91
2023-01-12T03:24:03.601Z,98978.69
2023-01-12T03:26:34.635Z,98978.06
2023-01-12T03:29:06.704Z,98977.66
2023-01-12T03:31:35.158Z,98974.75
2023-01-12T03:34:06.679Z,98976.00
2023-01-12T03:36:46.646Z,98976.34
2023-01-12T03:39:21.509Z,98971.75
2023-01-12T03:41:57.347Z,98979.56
2023-01-12T03:44:32.388Z,98972.22
2023-01-12T03:47:04.748Z,98976.34
2023-01-12T03:49:39.492Z,98975.13
2023-01-12T03:52:11.041Z,98970.56
2023-01-12T03:54:41.638Z,98967.53
2023-01-12T03:57:12.105Z,98968.84
2023-01-12T03:59:40.936Z,98973.25
2023-01-12T04:02:08.712Z,98972.44
2023-01-12T04:04:37.842Z,98963.22
2023-01-12T04:07:05.739Z,98965.47
2023-01-12T04:09:33.639Z,98964.72
2023-01-12T04:12:21.378Z,98954.94
2023-01-12T04:14:50.089Z,98948.34
2023-01-12T04:17:24.170Z,98952.13
2023-01-12T04:19:53.620Z,98943.94
2023-01-12T04:22:39.008Z,98942.63
2023-01-12T04:25:09.510Z,98946.88
2023-01-12T04:27:37.742Z,98944.31
2023-01-12T04:30:06.296Z,98938.59
2023-01-12T04:32:34.103Z,98930.69
2023-01-12T04:35:03.235Z,98932.38
2023-01-12T04:37:32.852Z,98926.84
2023-01-12T04:40:00.609Z,98919.56
2023-01-12T04:42:46.212Z,98936.41
2023-01-12T04:45:13.978Z,98919.22
2023-01-12T04:47:41.745Z,98917.63
2023-01-12T04:50:12.020Z,98914.13
2023-01-12T04:52:39.895Z,98907.75
2023-01-12T04:55:08.450Z,98899.47
2023-01-12T04:57:36.537Z,98904.16
2023-01-12T05:00:05.521Z,98902.66
2023-01-12T05:02:33.393Z,98894.28
2023-01-12T05:05:01.164Z,98898.13
2023-01-12T05:07:30.309Z,98904.38
2023-01-12T05:10:30.075Z,98903.97
2023-01-12T05:12:58.008Z,98903.78
2023-01-12T05:15:25.892Z,98902.00
2023-01-12T05:17:54.670Z,98905.19
2023-01-12T05:20:22.648Z,98902.09
2023-01-12T05:22:52.614Z,98909.72
2023-01-12T05:25:20.455Z,98912.34
2023-01-12T05:27:48.283Z,98909.03
2023-01-12T05:30:16.939Z,98900.28
2023-01-12T05:32:45.863Z,98898.06
2023-01-12T05:35:13.597Z,98887.59
2023-01-12T05:37:41.508Z,98883.00
2023-01-12T05:40:12.503Z,98887.97
2023-01-12T05:43:00.727Z,98881.28
2023-01-12T05:45:28.565Z,98885.31
2023-01-12T05:48:02.145Z,98888.91
2023-01-12T05:50:30.177Z,98889.50
2023-01-12T05:53:10.211Z,98896.06
2023-01-12T05:55:40.039Z,98897.09
2023-01-12T05:58:08.233Z,98900.50
2023-01-12T06:00:36.110Z,98895.69
2023-01-12T06:03:04.371Z,98888.50
2023-01-12T06:05:32.218Z,98872.34
2023-01-12T06:08:00.708Z,98876.69
2023-01-12T06:10:28.563Z,98884.03
2023-01-12T06:13:15.238Z,98873.69
2023-01-12T06:15:43.086Z,98876.88
2023-01-12T06:18:11.318Z,98872.94
2023-01-12T06:20:41.385Z,98865.13
2023-01-12T06:23:09.184Z,98861.00
2023-01-12T06:25:37.621Z,98863.16
2023-01-12T06:28:07.900Z,98853.66
2023-01-12T06:30:35.790Z,98838.59
2023-01-12T06:33:04.139Z,98845.63
2023-01-12T06:35:33.941Z,98849.41
2023-01-12T06:38:02.432Z,98841.03
2023-01-12T06:40:30.274Z,98841.31
2023-01-12T06:42:58.077Z,98841.09
2023-01-12T06:45:27.182Z,98846.78
2023-01-12T06:47:57.251Z,98842.31
2023-01-12T06:50:27.442Z,98848.63
2023-01-12T06:52:56.077Z,98855.22
2023-01-12T06:55:23.865Z,98847.88
2023-01-12T06:57:51.639Z,98859.53
2023-01-12T07:00:20.037Z,98853.72
2023-01-12T07:02:51.842Z,98846.16
2023-01-12T07:05:19.697Z,98844.13
2023-01-12T07:07:49.537Z,98848.06
2023-01-12T07:10:20.639Z,98857.47
2023-01-12T07:12:50.149Z,98844.69
2023-01-12T07:15:18.079Z,98849.19
2023-01-12T07:17:45.969Z,98833.72
2023-01-12T07:20:15.404Z,98834.78
2023-01-12T07:22:43.131Z,98854.03
2023-01-12T07:25:11.230Z,98862.53
2023-01-12T07:27:39.014Z,98852.53
2023-01-12T07:30:07.977Z,98849.88
2023-01-12T07:32:35.862Z,98854.03
2023-01-12T07:35:06.587Z,98861.28
2023-01-12T07:37:35.830Z,98853.63
2023-01-12T07:40:03.662Z,98853.97
2023-01-12T07:42:33.606Z,98852.91
2023-01-12T07:45:03.124Z,98843.56
2023-01-12T07:47:30.934Z,98858.88
2023-01-12T07:49:58.748Z,98858.50
2023-01-12T07:52:26.521Z,98853.09
2023-01-12T07:54:58.215Z,98855.91
2023-01-12T07:57:26.103Z,98847.59
2023-01-12T07:59:53.931Z,98853.22
2023-01-12T08:02:21.794Z,98836.34
2023-01-12T08:04:49.682Z,98841.31
2023-01-12T08:07:17.575Z,98850.06
2023-01-12T08:09:45.406Z,98839.25
2023-01-12T08:12:14.515Z,98845.78
2023-01-12T08:14:42.974Z,98853.16
2023-01-12T08:17:15.301Z,98851.06
2023-01-12T08:19:46.920Z,98848.09
2023-01-12T08:22:19.145Z,98850.34
2023-01-12T08:24:51.704Z,98849.81
2023-01-12T08:27:25.137Z,98839.97
2023-01-12T08:29:55.571Z,98837.28
2023-01-12T08:32:24.295Z,98846.19
2023-01-12T08:34:54.490Z,98845.59
2023-01-12T08:37:26.141Z,98844.13
2023-01-12T08:39:54.121Z,98849.16
2023-01-12T08:42:26.502Z,98845.84
2023-01-12T08:44:55.631Z,98851.59
2023-01-12T08:47:27.101Z,98843.88
2023-01-12T08:49:55.321Z,98849.34
2023-01-12T08:52:26.071Z,98851.25
2023-01-12T08:54:53.901Z,98848.63
2023-01-12T08:57:23.094Z,98847.91
2023-01-12T08:59:51.005Z,98842.97
2023-01-12T09:02:19.267Z,98842.47
2023-01-12T09:04:47.129Z,98847.31
2023-01-12T09:07:17.127Z,98850.91
2023-01-12T09:09:44.951Z,98852.00
2023-01-12T09:12:12.929Z,98843.94
2023-01-12T09:14:44.347Z,98856.47
2023-01-12T09:17:12.200Z,98852.09
2023-01-12T09:19:40.061Z,98848.09
2023-01-12T09:22:07.851Z,98857.06
2023-01-12T09:24:35.683Z,98864.66
2023-01-12T09:27:03.487Z,98863.41
2023-01-12T09:29:31.271Z,98873.34
2023-01-12T09:32:00.617Z,98881.34
2023-01-12T09:34:28.616Z,98874.28
2023-01-12T09:36:57.182Z,98875.34
2023-01-12T09:39:28.577Z,98884.44
2023-01-12T09:42:15.176Z,98878.84
2023-01-12T09:45:11.737Z,98875.66
2023-01-12T09:47:50.712Z,98869.78
2023-01-12T09:50:23.352Z,98870.78
2023-01-12T09:52:56.675Z,98877.53
2023-01-12T09:55:27.120Z,98870.47
2023-01-12T09:58:13.930Z,98857.56
2023-01-12T10:00:41.846Z,98842.56
2023-01-12T10:03:25.663Z,98839.31
2023-01-12T10:05:58.267Z,98834.66
2023-01-12T10:08:33.447Z,98820.81
2023-01-12T10:11:15.693Z,98813.41
2023-01-12T10:14:02.156Z,98805.59
2023-01-12T10:16:38.651Z,98802.44
2023-01-12T10:19:14.293Z,98800.94
2023-01-12T10:21:42.779Z,98799.53
2023-01-12T10:24:13.957Z,98800.69
2023-01-12T10:26:43.641Z,98797.03
2023-01-12T10:29:13.863Z,98785.88
2023-01-12T10:31:41.809Z,98806.19
2023-01-12T10:34:13.098Z,98804.13
2023-01-12T10:36:44.490Z,98796.88
2023-01-12T10:39:31.445Z,98795.81
2023-01-12T10:42:38.427Z,98796.19
2023-01-12T10:45:18.333Z,98796.25
2023-01-12T10:47:46.756Z,98804.50
2023-01-12T10:50:28.318Z,98813.47
2023-01-12T10:53:02.308Z,98799.81
2023-01-12T10:55:33.504Z,98794.41
2023-01-12T10:58:01.858Z,98784.16
2023-01-12T11:00:30.776Z,98789.66
2023-01-12T11:02:58.778Z,98776.97
2023-01-12T11:05:35.495Z,98769.47
2023-01-12T11:08:04.100Z,98763.31
2023-01-12T11:10:35.498Z,98760.72
2023-01-12T11:13:05.893Z,98757.75
2023-01-12T11:15:39.226Z,98767.88
2023-01-12T11:18:33.240Z,98771.19
2023-01-12T11:21:05.634Z,98753.53
2023-01-12T11:23:40.157Z,98762.97
2023-01-12T11:26:16.987Z,98758.16
2023-01-12T11:28:48.725Z,98751.66
2023-01-12T11:31:22.027Z,98750.53
2023-01-12T11:33:57.323Z,98750.53
2023-01-12T11:36:31.438Z,98744.38
2023-01-12T11:39:04.223Z,98745.16
2023-01-12T11:41:39.977Z,98744.91
2023-01-12T11:44:16.332Z,98724.09
2023-01-12T11:46:47.678Z,98734.38
2023-01-12T11:49:19.312Z,98727.69
2023-01-12T11:51:51.867Z,98734.28
2023-01-12T11:54:20.527Z,98721.50
2023-01-12T11:57:04.263Z,98710.13
2023-01-12T11:59:41.800Z,98715.38
2023-01-12T12:02:29.172Z,98719.25
2023-01-12T12:05:07.507Z,98710.91
2023-01-12T12:07:49.522Z,98716.34
2023-01-12T12:10:23.887Z,98706.16
2023-01-12T12:13:17.427Z,98713.03
2023-01-12T12:15:56.652Z,98716.97
2023-01-12T12:18:39.365Z,98707.31
2023-01-12T12:21:16.821Z,98705.75
2023-01-12T12:23:58.631Z,98711.13
2023-01-12T12:26:30.529Z,98696.72
2023-01-12T12:29:27.464Z,98702.84
2023-01-12T12:32:09.893Z,98693.94
2023-01-12T12:35:01.330Z,98693.31
2023-01-12T12:37:42.982Z,98695.38
2023-01-12T12:40:22.942Z,98692.63
2023-01-12T12:43:19.722Z,98696.56
2023-01-12T12:45:54.235Z,98685.28
2023-01-12T12:48:28.617Z,98679.28
2023-01-12T12:51:04.088Z,98699.38
2023-01-12T12:53:35.802Z,98684.63
2023-01-12T12:56:07.859Z,98690.75
2023-01-12T12:58:46.637Z,98679.09
2023-01-12T13:01:43.517Z,98672.06
2023-01-12T13:04:14.100Z,98674.84
2023-01-12T13:06:45.593Z,98676.06
2023-01-12T13:09:40.392Z,98676.53
2023-01-12T13:12:33.406Z,98677.22
2023-01-12T13:15:26.653Z,98675.34
2023-01-12T13:17:56.054Z,98674.16
2023-01-12T13:21:02.377Z,98673.91
2023-01-12T13:23:48.896Z,98675.34
2023-01-12T13:26:46.815Z,98667.22
2023-01-12T13:29:51.384Z,98669.22
2023-01-12T13:32:43.179Z,98663.81
2023-01-12T13:35:58.866Z,98660.66
2023-01-12T13:38:48.426Z,98679.69
2023-01-12T13:41:41.786Z,98674.47
2023-01-12T13:44:14.659Z,98673.09
2023-01-12T13:46:47.449Z,98685.69
2023-01-12T13:49:31.156Z,98693.25
2023-01-12T13:52:01.927Z,98681.88
2023-01-12T13:54:30.776Z,98692.13
2023-01-12T13:57:00.890Z,98687.88
2023-01-12T13:59:30.084Z,98682.59
2023-01-12T14:01:59.772Z,98695.63
2023-01-12T14:04:45.886Z,98692.38
2023-01-12T14:07:28.828Z,98699.88
2023-01-12T14:10:08.846Z,98677.50
2023-01-12T14:12:51.075Z,98685.69
2023-01-12T14:15:46.616Z,98677.75
2023-01-12T14:18:18.802Z,98672.66
2023-01-12T14:20:55.403Z,98664.13
2023-01-12T14:23:28.795Z,98661.34
2023-01-12T14:26:22.477Z,98668.50
2023-01-12T14:28:51.868Z,98668.59
2023-01-12T14:31:27.019Z,98670.13
2023-01-12T14:33:58.447Z,98671.81
2023-01-12T14:36:29.273Z,98669.88
2023-01-12T14:38:59.152Z,98664.03
2023-01-12T14:41:47.138Z,98672.66
2023-01-12T14:44:38.004Z,98669.28
2023-01-12T14:47:06.186Z,98669.28
2023-01-12T14:49:36.918Z,98670.28
2023-01-12T14:52:24.000Z,98661.44
2023-01-12T14:54:54.099Z,98658.22
2023-01-12T14:57:25.064Z,98659.81
2023-01-12T14:59:53.587Z,98660.16
2023-01-12T15:02:32.943Z,98659.28
2023-01-12T15:05:04.716Z,98655.41
2023-01-12T15:07:36.152Z,98658.69
2023-01-12T15:10:25.895Z,98666.84
2023-01-12T15:12:55.152Z,98658.56
2023-01-12T15:15:24.949Z,98675.28
2023-01-12T15:18:12.216Z,98664.00
2023-01-12T15:21:03.276Z,98666.34
2023-01-12T15:23:51.013Z,98665.66
2023-01-12T15:26:19.573Z,98667.06
2023-01-12T15:28:48.583Z,98676.00
2023-01-12T15:31:21.446Z,98661.31
2023-01-12T15:33:49.445Z,98674.25
2023-01-12T15:36:18.717Z,98665.16
2023-01-12T15:38:48.688Z,98656.97
2023-01-12T15:41:19.170Z,98664.22
2023-01-12T15:43:47.036Z,98657.88
2023-01-12T15:46:20.038Z,98648.00
2023-01-12T15:48:47.869Z,98652.47
2023-01-12T15:51:16.920Z,98659.63
2023-01-12T15:53:46.158Z,98659.78
2023-01-12T15:56:16.236Z,98656.50
2023-01-12T15:58:44.051Z,98656.13
2023-01-12T16:01:16.920Z,98656.25
2023-01-12T16:04:09.510Z,98652.78
2023-01-12T16:06:34.010Z,98646.78
2023-01-12T16:09:03.170Z,98644.16
2023-01-12T16:11:30.983Z,98652.59
2023-01-12T16:13:58.760Z,98642.84
2023-01-12T16:16:29.343Z,98652.56
2023-01-12T16:18:59.782Z,98661.53
2023-01-12T16:21:29.391Z,98658.88
2023-01-12T16:23:57.976Z,98653.78
2023-01-12T16:26:28.347Z,98651.34
2023-01-12T16:28:58.912Z,98651.91
2023-01-12T16:31:27.878Z,98647.50
2023-01-12T16:33:55.817Z,98642.91
2023-01-12T16:36:23.686Z,98652.44
2023-01-12T16:38:51.978Z,98636.72
2023-01-12T16:41:22.213Z,98643.06
2023-01-12T16:43:52.166Z,98644.16
2023-01-12T16:46:20.032Z,98653.03
2023-01-12T16:48:48.252Z,98650.97
2023-01-12T16:51:19.913Z,98640.66
2023-01-12T16:53:48.334Z,98632.84
2023-01-12T16:56:17.245Z,98641.00
2023-01-12T16:58:48.306Z,98636.72
2023-01-12T17:01:21.015Z,98641.50
2023-01-12T17:03:50.675Z,98636.16
2023-01-12T17:06:21.380Z,98635.94
2023-01-12T17:08:49.573Z,98631.91
2023-01-12T17:11:20.247Z,98633.56
2023-01-12T17:13:52.369Z,98632.69
2023-01-12T17:16:23.351Z,98632.41
2023-01-12T17:18:51.669Z,98628.81
2023-01-12T17:21:20.951Z,98624.22
2023-01-12T17:23:48.980Z,98627.16
2023-01-12T17:26:19.364Z,98629.75
2023-01-12T17:28:48.129Z,98618.16
2023-01-12T17:31:19.268Z,98605.50
2023-01-12T17:33:50.137Z,98604.47
2023-01-12T17:36:19.058Z,98606.84
2023-01-12T17:38:47.004Z,98597.88
2023-01-12T17:41:30.956Z,98599.63
2023-01-12T17:43:59.166Z,98604.19
2023-01-12T17:46:27.123Z,98604.56
2023-01-12T17:48:58.517Z,98595.03
2023-01-12T17:51:26.528Z,98596.53
2023-01-12T17:53:54.693Z,98595.81
2023-01-12T17:56:22.590Z,98591.44
2023-01-12T17:58:50.986Z,98608.28
2023-01-12T18:01:19.311Z,98599.41
2023-01-12T18:03:47.269Z,98596.53
2023-01-12T18:06:25.827Z,98598.97
2023-01-12T18:08:56.204Z,98609.13
2023-01-12T18:11:24.506Z,98597.69
2023-01-12T18:13:52.749Z,98603.50
2023-01-12T18:16:21.136Z,98604.22
2023-01-12T18:18:52.095Z,98601.91
2023-01-12T18:21:23.113Z,98600.75
2023-01-12T18:23:53.286Z,98594.84
2023-01-12T18:26:25.160Z,98587.97
2023-01-12T18:28:53.330Z,98585.50
2023-01-12T18:31:23.240Z,98587.91
2023-01-12T18:33:52.701Z,98591.28
2023-01-12T18:36:23.747Z,98582.88
2023-01-12T18:38:54.051Z,98577.88
2023-01-12T18:41:40.747Z,98577.53
2023-01-12T18:44:09.267Z,98583.53
2023-01-12T18:47:11.502Z,98582.88
2023-01-12T18:49:40.154Z,98588.16
2023-01-12T18:52:30.067Z,98583.94
2023-01-12T18:54:58.841Z,98578.56
2023-01-12T18:57:28.802Z,98577.16
2023-01-12T19:00:00.215Z,98574.47
2023-01-12T19:02:29.801Z,98578.28
2023-01-12T19:05:16.589Z,98579.78
2023-01-12T19:08:03.785Z,98568.84
2023-01-12T19:10:33.610Z,98574.00
2023-01-12T19:13:18.869Z,98574.13
2023-01-12T19:16:04.126Z,98571.09
2023-01-12T19:18:31.996Z,98577.84
2023-01-12T19:21:23.548Z,98571.09
2023-01-12T19:24:09.972Z,98559.59
2023-01-12T19:26:55.354Z,98568.97
2023-01-12T19:29:23.248Z,98560.06
2023-01-12T19:31:51.132Z,98567.78
2023-01-12T19:34:19.068Z,98560.31
2023-01-12T19:36:46.892Z,98558.16
2023-01-12T19:39:23.814Z,98554.31
2023-01-12T19:42:09.310Z,98557.66
2023-01-12T19:44:37.194Z,98562.13
2023-01-12T19:47:05.078Z,98559.22
2023-01-12T19:49:33.128Z,98553.13
2023-01-12T19:52:01.005Z,98554.69
2023-01-12T19:54:31.515Z,98555.78
2023-01-12T19:56:59.629Z,98560.06
2023-01-12T19:59:28.326Z,98569.34
2023-01-12T20:01:56.231Z,98567.47
2023-01-12T20:04:24.160Z,98570.34
2023-01-12T20:06:53.258Z,98566.84
2023-01-12T20:09:21.233Z,98568.50
2023-01-12T20:11:54.544Z,98570.22
2023-01-12T20:14:22.984Z,98566.00
2023-01-12T20:16:50.985Z,98561.56
2023-01-12T20:19:19.453Z,98551.44
2023-01-12T20:21:49.368Z,98553.00
2023-01-12T20:24:17.828Z,98537.03
2023-01-12T20:26:46.080Z,98535.97
2023-01-12T20:29:15.316Z,98538.22
2023-01-12T20:31:44.245Z,98535.09
2023-01-12T20:34:12.552Z,98517.31
2023-01-12T20:36:40.991Z,98513.72
2023-01-12T20:39:11.040Z,98508.19
2023-01-12T20:41:39.675Z,98500.97
2023-01-12T20:44:07.970Z,98512.50
2023-01-12T20:46:37.202Z,98512.72
2023-01-12T20:49:05.020Z,98501.91
2023-01-12T20:51:32.967Z,98500.34
2023-01-12T20:54:02.915Z,98497.94
2023-01-12T20:56:31.449Z,98496.16
2023-01-12T20:59:00.270Z,98494.72
2023-01-12T21:01:28.916Z,98487.28
2023-01-12T21:04:00.359Z,98494.22
2023-01-12T21:06:28.198Z,98488.22
2023-01-12T21:08:55.971Z,98485.56
2023-01-12T21:11:23.735Z,98484.16
2023-01-12T21:13:51.562Z,98484.97
2023-01-12T21:16:22.648Z,98483.88
2023-01-12T21:18:50.572Z,98475.72
2023-01-12T21:21:19.722Z,98465.97
2023-01-12T21:23:47.683Z,98462.38
2023-01-12T21:26:16.087Z,98461.06
2023-01-12T21:28:43.964Z,98456.25
2023-01-12T21:31:13.542Z,98454.47
2023-01-12T21:33:41.369Z,98452.16
2023-01-12T21:36:13.942Z,98455.16
2023-01-12T21:38:46.551Z,98447.59
2023-01-12T21:41:15.942Z,98445.53
2023-01-12T21:43:42.801Z,98444.72
2023-01-12T21:46:11.694Z,98447.84
2023-01-12T21:48:41.806Z,98446.38
2023-01-12T21:51:12.732Z,98443.75
2023-01-12T21:53:41.807Z,98444.97
2023-01-12T21:56:13.005Z,98430.78
2023-01-12T21:58:40.924Z,98447.59
2023-01-12T22:01:10.793Z,98434.25
2023-01-12T22:03:41.743Z,98437.97
2023-01-12T22:06:11.867Z,98442.09
2023-01-12T22:08:41.265Z,98438.59
2023-01-12T22:11:12.791Z,98439.44
2023-01-12T22:13:40.974Z,98438.69
2023-01-12T22:16:10.568Z,98431.75
2023-01-12T22:18:39.364Z,98427.16
2023-01-12T22:21:09.071Z,98438.59
2023-01-12T22:23:38.142Z,98433.66
2023-01-12T22:26:08.799Z,98433.88
2023-01-12T22:28:40.220Z,98425.25
2023-01-12T22:31:09.853Z,98426.47
2023-01-12T22:33:38.056Z,98424.91
2023-01-12T22:36:07.859Z,98423.06
2023-01-12T22:38:35.811Z,98416.13
2023-01-12T22:41:07.629Z,98419.72
2023-01-12T22:43:40.700Z,98415.28
2023-01-12T22:46:17.896Z,98419.47
2023-01-12T22:48:49.303Z,98415.50
2023-01-12T22:51:17.240Z,98413.34
2023-01-12T22:53:45.071Z,98427.66
2023-01-12T22:56:12.936Z,98415.50
2023-01-12T22:58:41.039Z,98409.59
2023-01-12T23:01:10.507Z,98408.91
2023-01-12T23:03:39.752Z,98411.31
2023-01-12T23:06:11.419Z,98407.44
2023-01-12T23:08:39.279Z,98409.50
2023-01-12T23:11:09.372Z,98396.28
2023-01-12T23:13:37.227Z,98402.16
2023-01-12T23:16:07.559Z,98403.75
2023-01-12T23:18:37.375Z,98406.25
2023-01-12T23:21:10.917Z,98409.63
2023-01-12T23:23:39.494Z,98396.88
2023-01-12T23:26:09.536Z,98399.88
2023-01-12T23:28:41.068Z,98389.44
2023-01-12T23:31:14.710Z,98400.03
2023-01-12T23:33:43.113Z,98388.00
2023-01-12T23:36:15.157Z,98384.16
2023-01-12T23:38:43.706Z,98398.81
2023-01-12T23:41:13.109Z,98401.59
2023-01-12T23:43:41.179Z,98392.81
2023-01-12T23:46:09.119Z,98397.00
2023-01-12T23:48:39.029Z,98389.22
2023-01-12T23:51:07.216Z,98395.44
2023-01-12T23:53:36.666Z,98392.56
2023-01-12T23:56:06.813Z,98385.34
2023-01-12T23:58:35.043Z,98383.41
